sensor_id;sensor_type;location;lat;lon;timestamp;pressure;altitude;pressure_sealevel;temperature
24639;BMP180;1641;51.306;12.384;2023-05-08T00:00:21;100915.00;;;8.60
24639;BMP180;1641;51.306;12.384;2023-05-08T00:02:47;100913.00;;;8.20
24639;BMP180;1641;51.306;12.384;2023-05-08T00:05:12;100901.00;;;8.20
24639;BMP180;1641;51.306;12.384;2023-05-08T00:07:38;100875.00;;;8.40
24639;BMP180;1641;51.306;12.384;2023-05-08T00:10:04;100903.00;;;8.20
24639;BMP180;1641;51.306;12.384;2023-05-08T00:12:30;100858.00;;;8.20
24639;BMP180;1641;51.306;12.384;2023-05-08T00:14:55;100902.00;;;8.20
24639;BMP180;1641;51.306;12.384;2023-05-08T00:17:20;100869.00;;;8.30
24639;BMP180;1641;51.306;12.384;2023-05-08T00:19:46;100891.00;;;8.50
24639;BMP180;1641;51.306;12.384;2023-05-08T00:22:11;100900.00;;;8.80
24639;BMP180;1641;51.306;12.384;2023-05-08T00:24:37;100886.00;;;8.40
24639;BMP180;1641;51.306;12.384;2023-05-08T00:27:02;100904.00;;;8.50
24639;BMP180;1641;51.306;12.384;2023-05-08T00:29:27;100890.00;;;8.30
24639;BMP180;1641;51.306;12.384;2023-05-08T00:31:52;100884.00;;;8.30
24639;BMP180;1641;51.306;12.384;2023-05-08T00:34:18;100895.00;;;8.10
24639;BMP180;1641;51.306;12.384;2023-05-08T00:36:43;100897.00;;;8.30
24639;BMP180;1641;51.306;12.384;2023-05-08T00:39:08;100870.00;;;8.20
24639;BMP180;1641;51.306;12.384;2023-05-08T00:41:33;100893.00;;;8.10
24639;BMP180;1641;51.306;12.384;2023-05-08T00:43:59;100898.00;;;8.50
24639;BMP180;1641;51.306;12.384;2023-05-08T00:46:25;100903.00;;;8.30
24639;BMP180;1641;51.306;12.384;2023-05-08T00:48:50;100888.00;;;8.20
24639;BMP180;1641;51.306;12.384;2023-05-08T00:51:15;100896.00;;;8.10
24639;BMP180;1641;51.306;12.384;2023-05-08T00:53:42;100890.00;;;8.00
24639;BMP180;1641;51.306;12.384;2023-05-08T00:56:10;100882.00;;;8.10
24639;BMP180;1641;51.306;12.384;2023-05-08T00:58:37;100882.00;;;7.80
24639;BMP180;1641;51.306;12.384;2023-05-08T01:01:02;100886.00;;;8.00
24639;BMP180;1641;51.306;12.384;2023-05-08T01:03:28;100856.00;;;7.90
24639;BMP180;1641;51.306;12.384;2023-05-08T01:05:55;100888.00;;;8.20
24639;BMP180;1641;51.306;12.384;2023-05-08T01:08:22;100893.00;;;7.90
24639;BMP180;1641;51.306;12.384;2023-05-08T01:19:30;100887.00;;;7.90
24639;BMP180;1641;51.306;12.384;2023-05-08T01:25:11;100903.00;;;8.00
24639;BMP180;1641;51.306;12.384;2023-05-08T01:33:32;100917.00;;;8.20
24639;BMP180;1641;51.306;12.384;2023-05-08T01:36:08;100912.00;;;8.00
24639;BMP180;1641;51.306;12.384;2023-05-08T01:38:44;100909.00;;;8.00
24639;BMP180;1641;51.306;12.384;2023-05-08T01:41:15;100917.00;;;8.20
24639;BMP180;1641;51.306;12.384;2023-05-08T01:44:14;100916.00;;;8.10
24639;BMP180;1641;51.306;12.384;2023-05-08T01:46:41;100907.00;;;7.80
24639;BMP180;1641;51.306;12.384;2023-05-08T01:49:11;100907.00;;;7.70
24639;BMP180;1641;51.306;12.384;2023-05-08T01:51:45;100912.00;;;7.80
24639;BMP180;1641;51.306;12.384;2023-05-08T01:54:14;100917.00;;;7.80
24639;BMP180;1641;51.306;12.384;2023-05-08T01:56:42;100909.00;;;7.90
24639;BMP180;1641;51.306;12.384;2023-05-08T01:59:09;100912.00;;;8.00
24639;BMP180;1641;51.306;12.384;2023-05-08T02:01:44;100890.00;;;7.70
24639;BMP180;1641;51.306;12.384;2023-05-08T02:04:11;100864.00;;;7.70
24639;BMP180;1641;51.306;12.384;2023-05-08T02:06:38;100915.00;;;8.00
24639;BMP180;1641;51.306;12.384;2023-05-08T02:09:06;100895.00;;;8.30
24639;BMP180;1641;51.306;12.384;2023-05-08T02:11:34;100913.00;;;7.60
24639;BMP180;1641;51.306;12.384;2023-05-08T02:14:00;100893.00;;;7.40
24639;BMP180;1641;51.306;12.384;2023-05-08T02:16:27;100907.00;;;7.60
24639;BMP180;1641;51.306;12.384;2023-05-08T02:18:54;100917.00;;;7.60
24639;BMP180;1641;51.306;12.384;2023-05-08T02:21:21;100914.00;;;7.80
24639;BMP180;1641;51.306;12.384;2023-05-08T02:23:47;100889.00;;;8.10
24639;BMP180;1641;51.306;12.384;2023-05-08T02:26:14;100914.00;;;7.80
24639;BMP180;1641;51.306;12.384;2023-05-08T02:28:43;100916.00;;;7.90
24639;BMP180;1641;51.306;12.384;2023-05-08T02:31:10;100919.00;;;8.00
24639;BMP180;1641;51.306;12.384;2023-05-08T02:33:37;100926.00;;;8.00
24639;BMP180;1641;51.306;12.384;2023-05-08T02:36:04;100920.00;;;7.90
24639;BMP180;1641;51.306;12.384;2023-05-08T02:38:31;100923.00;;;8.10
24639;BMP180;1641;51.306;12.384;2023-05-08T02:40:59;100926.00;;;8.10
24639;BMP180;1641;51.306;12.384;2023-05-08T02:43:26;100885.00;;;8.00
24639;BMP180;1641;51.306;12.384;2023-05-08T02:48:30;100910.00;;;7.50
24639;BMP180;1641;51.306;12.384;2023-05-08T02:51:28;100923.00;;;7.40
24639;BMP180;1641;51.306;12.384;2023-05-08T02:54:01;100914.00;;;7.90
24639;BMP180;1641;51.306;12.384;2023-05-08T02:56:36;100927.00;;;7.50
24639;BMP180;1641;51.306;12.384;2023-05-08T02:59:21;100917.00;;;7.50
24639;BMP180;1641;51.306;12.384;2023-05-08T03:01:55;100880.00;;;7.30
24639;BMP180;1641;51.306;12.384;2023-05-08T03:04:30;100898.00;;;7.10
24639;BMP180;1641;51.306;12.384;2023-05-08T03:07:03;100924.00;;;7.10
24639;BMP180;1641;51.306;12.384;2023-05-08T03:09:38;100918.00;;;7.30
24639;BMP180;1641;51.306;12.384;2023-05-08T03:12:13;100900.00;;;7.60
24639;BMP180;1641;51.306;12.384;2023-05-08T03:14:53;100903.00;;;7.10
24639;BMP180;1641;51.306;12.384;2023-05-08T03:17:20;100922.00;;;7.10
24639;BMP180;1641;51.306;12.384;2023-05-08T03:19:49;100924.00;;;6.80
24639;BMP180;1641;51.306;12.384;2023-05-08T03:22:18;100926.00;;;6.90
24639;BMP180;1641;51.306;12.384;2023-05-08T03:24:44;100901.00;;;7.30
24639;BMP180;1641;51.306;12.384;2023-05-08T03:27:11;100933.00;;;6.80
24639;BMP180;1641;51.306;12.384;2023-05-08T03:29:40;100921.00;;;6.90
24639;BMP180;1641;51.306;12.384;2023-05-08T03:32:08;100924.00;;;7.10
24639;BMP180;1641;51.306;12.384;2023-05-08T03:34:34;100920.00;;;7.10
24639;BMP180;1641;51.306;12.384;2023-05-08T03:37:00;100940.00;;;7.10
24639;BMP180;1641;51.306;12.384;2023-05-08T03:39:25;100926.00;;;7.00
24639;BMP180;1641;51.306;12.384;2023-05-08T03:41:51;100925.00;;;7.00
24639;BMP180;1641;51.306;12.384;2023-05-08T03:44:16;100915.00;;;7.20
24639;BMP180;1641;51.306;12.384;2023-05-08T03:46:43;100920.00;;;7.00
24639;BMP180;1641;51.306;12.384;2023-05-08T03:49:11;100926.00;;;6.80
24639;BMP180;1641;51.306;12.384;2023-05-08T03:51:39;100891.00;;;7.10
24639;BMP180;1641;51.306;12.384;2023-05-08T03:54:04;100920.00;;;6.90
24639;BMP180;1641;51.306;12.384;2023-05-08T03:56:35;100931.00;;;7.10
24639;BMP180;1641;51.306;12.384;2023-05-08T04:01:52;100925.00;;;6.90
24639;BMP180;1641;51.306;12.384;2023-05-08T04:04:40;100936.00;;;6.90
24639;BMP180;1641;51.306;12.384;2023-05-08T04:07:27;100932.00;;;6.80
24639;BMP180;1641;51.306;12.384;2023-05-08T04:13:02;100937.00;;;6.60
24639;BMP180;1641;51.306;12.384;2023-05-08T04:15:30;100938.00;;;6.80
24639;BMP180;1641;51.306;12.384;2023-05-08T04:18:11;100943.00;;;7.00
24639;BMP180;1641;51.306;12.384;2023-05-08T04:20:40;100935.00;;;7.10
24639;BMP180;1641;51.306;12.384;2023-05-08T04:23:20;100943.00;;;7.10
24639;BMP180;1641;51.306;12.384;2023-05-08T04:25:47;100923.00;;;6.60
24639;BMP180;1641;51.306;12.384;2023-05-08T04:28:16;100941.00;;;6.90
24639;BMP180;1641;51.306;12.384;2023-05-08T04:30:42;100949.00;;;7.30
24639;BMP180;1641;51.306;12.384;2023-05-08T04:33:08;100947.00;;;7.20
24639;BMP180;1641;51.306;12.384;2023-05-08T04:35:34;100955.00;;;7.10
24639;BMP180;1641;51.306;12.384;2023-05-08T04:38:01;100954.00;;;6.90
24639;BMP180;1641;51.306;12.384;2023-05-08T04:40:26;100956.00;;;6.90
24639;BMP180;1641;51.306;12.384;2023-05-08T04:42:51;100951.00;;;7.10
24639;BMP180;1641;51.306;12.384;2023-05-08T04:45:17;100950.00;;;7.20
24639;BMP180;1641;51.306;12.384;2023-05-08T04:47:48;100962.00;;;7.50
24639;BMP180;1641;51.306;12.384;2023-05-08T04:50:13;100969.00;;;7.10
24639;BMP180;1641;51.306;12.384;2023-05-08T04:52:39;100967.00;;;7.10
24639;BMP180;1641;51.306;12.384;2023-05-08T04:55:07;100975.00;;;7.00
24639;BMP180;1641;51.306;12.384;2023-05-08T04:57:33;100974.00;;;7.30
24639;BMP180;1641;51.306;12.384;2023-05-08T04:59:58;100969.00;;;7.40
24639;BMP180;1641;51.306;12.384;2023-05-08T05:02:26;100989.00;;;7.40
24639;BMP180;1641;51.306;12.384;2023-05-08T05:04:51;100971.00;;;7.60
24639;BMP180;1641;51.306;12.384;2023-05-08T05:07:17;100975.00;;;7.50
24639;BMP180;1641;51.306;12.384;2023-05-08T05:09:43;100982.00;;;8.10
24639;BMP180;1641;51.306;12.384;2023-05-08T05:12:11;100975.00;;;7.90
24639;BMP180;1641;51.306;12.384;2023-05-08T05:14:40;100977.00;;;8.10
24639;BMP180;1641;51.306;12.384;2023-05-08T05:17:06;100937.00;;;8.30
24639;BMP180;1641;51.306;12.384;2023-05-08T05:19:32;100977.00;;;8.60
24639;BMP180;1641;51.306;12.384;2023-05-08T05:21:57;100980.00;;;9.10
24639;BMP180;1641;51.306;12.384;2023-05-08T05:24:24;100978.00;;;8.60
24639;BMP180;1641;51.306;12.384;2023-05-08T05:26:52;100978.00;;;9.10
24639;BMP180;1641;51.306;12.384;2023-05-08T05:29:17;100980.00;;;8.70
24639;BMP180;1641;51.306;12.384;2023-05-08T05:31:43;100981.00;;;9.10
24639;BMP180;1641;51.306;12.384;2023-05-08T05:34:11;100934.00;;;8.90
24639;BMP180;1641;51.306;12.384;2023-05-08T05:36:36;100975.00;;;8.70
24639;BMP180;1641;51.306;12.384;2023-05-08T05:39:05;100921.00;;;8.70
24639;BMP180;1641;51.306;12.384;2023-05-08T05:41:36;100951.00;;;8.80
24639;BMP180;1641;51.306;12.384;2023-05-08T05:44:01;100879.00;;;9.40
24639;BMP180;1641;51.306;12.384;2023-05-08T05:46:27;100953.00;;;9.70
24639;BMP180;1641;51.306;12.384;2023-05-08T05:48:57;100982.00;;;10.60
24639;BMP180;1641;51.306;12.384;2023-05-08T05:51:22;100984.00;;;11.80
24639;BMP180;1641;51.306;12.384;2023-05-08T05:53:48;100991.00;;;12.60
24639;BMP180;1641;51.306;12.384;2023-05-08T05:56:13;100949.00;;;12.80
24639;BMP180;1641;51.306;12.384;2023-05-08T05:58:41;100993.00;;;12.50
24639;BMP180;1641;51.306;12.384;2023-05-08T06:01:09;100994.00;;;12.90
24639;BMP180;1641;51.306;12.384;2023-05-08T06:03:34;100989.00;;;14.00
24639;BMP180;1641;51.306;12.384;2023-05-08T06:05:59;100962.00;;;13.50
24639;BMP180;1641;51.306;12.384;2023-05-08T06:08:25;100989.00;;;12.80
24639;BMP180;1641;51.306;12.384;2023-05-08T06:10:56;100991.00;;;14.50
24639;BMP180;1641;51.306;12.384;2023-05-08T06:13:22;100981.00;;;15.30
24639;BMP180;1641;51.306;12.384;2023-05-08T06:15:48;100991.00;;;16.50
24639;BMP180;1641;51.306;12.384;2023-05-08T06:18:14;100990.00;;;17.00
24639;BMP180;1641;51.306;12.384;2023-05-08T06:20:41;100932.00;;;18.00
24639;BMP180;1641;51.306;12.384;2023-05-08T06:23:06;100997.00;;;15.60
24639;BMP180;1641;51.306;12.384;2023-05-08T06:25:34;100938.00;;;15.70
24639;BMP180;1641;51.306;12.384;2023-05-08T06:28:06;100989.00;;;14.50
24639;BMP180;1641;51.306;12.384;2023-05-08T06:30:38;101001.00;;;14.20
24639;BMP180;1641;51.306;12.384;2023-05-08T06:33:03;100999.00;;;15.10
24639;BMP180;1641;51.306;12.384;2023-05-08T06:35:31;100998.00;;;15.50
24639;BMP180;1641;51.306;12.384;2023-05-08T06:37:56;101006.00;;;16.60
24639;BMP180;1641;51.306;12.384;2023-05-08T06:40:22;101001.00;;;16.80
24639;BMP180;1641;51.306;12.384;2023-05-08T06:42:47;100998.00;;;15.30
24639;BMP180;1641;51.306;12.384;2023-05-08T06:45:16;100994.00;;;15.10
24639;BMP180;1641;51.306;12.384;2023-05-08T06:47:44;101002.00;;;15.30
24639;BMP180;1641;51.306;12.384;2023-05-08T06:50:10;101014.00;;;15.90
24639;BMP180;1641;51.306;12.384;2023-05-08T06:52:35;101001.00;;;15.40
24639;BMP180;1641;51.306;12.384;2023-05-08T06:55:04;101001.00;;;15.30
24639;BMP180;1641;51.306;12.384;2023-05-08T06:57:29;101000.00;;;16.30
24639;BMP180;1641;51.306;12.384;2023-05-08T06:59:55;101005.00;;;17.50
24639;BMP180;1641;51.306;12.384;2023-05-08T07:02:20;101001.00;;;17.80
24639;BMP180;1641;51.306;12.384;2023-05-08T07:04:46;101007.00;;;18.20
24639;BMP180;1641;51.306;12.384;2023-05-08T07:07:11;101005.00;;;18.40
24639;BMP180;1641;51.306;12.384;2023-05-08T07:09:38;100998.00;;;20.00
24639;BMP180;1641;51.306;12.384;2023-05-08T07:12:04;101006.00;;;19.70
24639;BMP180;1641;51.306;12.384;2023-05-08T07:14:29;100990.00;;;20.30
24639;BMP180;1641;51.306;12.384;2023-05-08T07:16:54;101008.00;;;19.80
24639;BMP180;1641;51.306;12.384;2023-05-08T07:19:19;100997.00;;;17.50
24639;BMP180;1641;51.306;12.384;2023-05-08T07:21:45;100984.00;;;17.10
24639;BMP180;1641;51.306;12.384;2023-05-08T07:24:10;101015.00;;;18.20
24639;BMP180;1641;51.306;12.384;2023-05-08T07:26:36;101006.00;;;19.40
24639;BMP180;1641;51.306;12.384;2023-05-08T07:29:01;101015.00;;;17.20
24639;BMP180;1641;51.306;12.384;2023-05-08T07:31:26;100985.00;;;17.20
24639;BMP180;1641;51.306;12.384;2023-05-08T07:33:51;101018.00;;;16.70
24639;BMP180;1641;51.306;12.384;2023-05-08T07:36:17;101002.00;;;18.40
24639;BMP180;1641;51.306;12.384;2023-05-08T07:38:42;100995.00;;;17.60
24639;BMP180;1641;51.306;12.384;2023-05-08T07:41:07;101017.00;;;19.10
24639;BMP180;1641;51.306;12.384;2023-05-08T07:43:32;101029.00;;;20.10
24639;BMP180;1641;51.306;12.384;2023-05-08T07:45:58;101013.00;;;20.30
24639;BMP180;1641;51.306;12.384;2023-05-08T07:48:23;101012.00;;;20.50
24639;BMP180;1641;51.306;12.384;2023-05-08T07:50:49;100989.00;;;19.50
24639;BMP180;1641;51.306;12.384;2023-05-08T07:53:14;101020.00;;;20.10
24639;BMP180;1641;51.306;12.384;2023-05-08T07:55:39;101012.00;;;21.90
24639;BMP180;1641;51.306;12.384;2023-05-08T07:58:05;100980.00;;;22.30
24639;BMP180;1641;51.306;12.384;2023-05-08T08:00:30;100988.00;;;21.90
24639;BMP180;1641;51.306;12.384;2023-05-08T08:02:56;101008.00;;;19.50
24639;BMP180;1641;51.306;12.384;2023-05-08T08:05:21;100984.00;;;19.50
24639;BMP180;1641;51.306;12.384;2023-05-08T08:07:47;101023.00;;;20.70
24639;BMP180;1641;51.306;12.384;2023-05-08T08:10:12;101015.00;;;19.60
24639;BMP180;1641;51.306;12.384;2023-05-08T08:12:37;100985.00;;;19.90
24639;BMP180;1641;51.306;12.384;2023-05-08T08:15:03;101024.00;;;20.80
24639;BMP180;1641;51.306;12.384;2023-05-08T08:17:29;100998.00;;;20.70
24639;BMP180;1641;51.306;12.384;2023-05-08T08:19:54;101004.00;;;20.60
24639;BMP180;1641;51.306;12.384;2023-05-08T08:22:19;100982.00;;;21.50
24639;BMP180;1641;51.306;12.384;2023-05-08T08:24:45;100999.00;;;22.60
24639;BMP180;1641;51.306;12.384;2023-05-08T08:27:10;101017.00;;;21.20
24639;BMP180;1641;51.306;12.384;2023-05-08T08:29:35;101019.00;;;22.00
24639;BMP180;1641;51.306;12.384;2023-05-08T08:32:01;100983.00;;;21.80
24639;BMP180;1641;51.306;12.384;2023-05-08T08:34:27;101029.00;;;21.50
24639;BMP180;1641;51.306;12.384;2023-05-08T08:36:52;101012.00;;;19.00
24639;BMP180;1641;51.306;12.384;2023-05-08T08:39:18;101024.00;;;20.50
24639;BMP180;1641;51.306;12.384;2023-05-08T08:41:43;101025.00;;;20.10
24639;BMP180;1641;51.306;12.384;2023-05-08T08:44:08;101025.00;;;21.60
24639;BMP180;1641;51.306;12.384;2023-05-08T08:46:34;101035.00;;;22.80
24639;BMP180;1641;51.306;12.384;2023-05-08T08:49:03;101034.00;;;22.60
24639;BMP180;1641;51.306;12.384;2023-05-08T08:54:16;101035.00;;;20.80
24639;BMP180;1641;51.306;12.384;2023-05-08T08:56:49;101033.00;;;20.70
24639;BMP180;1641;51.306;12.384;2023-05-08T08:59:16;101034.00;;;20.70
24639;BMP180;1641;51.306;12.384;2023-05-08T09:01:44;101003.00;;;20.40
24639;BMP180;1641;51.306;12.384;2023-05-08T09:04:11;101009.00;;;22.70
24639;BMP180;1641;51.306;12.384;2023-05-08T09:06:37;101030.00;;;23.20
24639;BMP180;1641;51.306;12.384;2023-05-08T09:09:03;101021.00;;;23.80
24639;BMP180;1641;51.306;12.384;2023-05-08T09:11:30;101027.00;;;19.90
24639;BMP180;1641;51.306;12.384;2023-05-08T09:13:55;101027.00;;;21.80
24639;BMP180;1641;51.306;12.384;2023-05-08T09:16:24;101012.00;;;22.60
24639;BMP180;1641;51.306;12.384;2023-05-08T09:18:55;101025.00;;;21.00
24639;BMP180;1641;51.306;12.384;2023-05-08T09:21:39;101024.00;;;19.30
24639;BMP180;1641;51.306;12.384;2023-05-08T09:24:17;101031.00;;;19.30
24639;BMP180;1641;51.306;12.384;2023-05-08T09:26:42;101033.00;;;18.60
24639;BMP180;1641;51.306;12.384;2023-05-08T09:29:32;101031.00;;;18.30
24639;BMP180;1641;51.306;12.384;2023-05-08T09:32:00;101024.00;;;19.20
24639;BMP180;1641;51.306;12.384;2023-05-08T09:34:27;100982.00;;;19.30
24639;BMP180;1641;51.306;12.384;2023-05-08T09:36:54;101027.00;;;20.60
24639;BMP180;1641;51.306;12.384;2023-05-08T09:39:23;101019.00;;;18.80
24639;BMP180;1641;51.306;12.384;2023-05-08T09:42:00;101037.00;;;19.40
24639;BMP180;1641;51.306;12.384;2023-05-08T09:44:43;101018.00;;;20.20
24639;BMP180;1641;51.306;12.384;2023-05-08T09:47:10;101026.00;;;20.40
24639;BMP180;1641;51.306;12.384;2023-05-08T09:49:36;101019.00;;;20.50
24639;BMP180;1641;51.306;12.384;2023-05-08T09:52:07;101004.00;;;19.30
24639;BMP180;1641;51.306;12.384;2023-05-08T09:54:32;101031.00;;;18.60
24639;BMP180;1641;51.306;12.384;2023-05-08T09:56:58;101030.00;;;17.40
24639;BMP180;1641;51.306;12.384;2023-05-08T09:59:28;101033.00;;;17.60
24639;BMP180;1641;51.306;12.384;2023-05-08T10:01:55;100990.00;;;17.10
24639;BMP180;1641;51.306;12.384;2023-05-08T10:04:34;101030.00;;;17.80
24639;BMP180;1641;51.306;12.384;2023-05-08T10:07:00;101036.00;;;17.40
24639;BMP180;1641;51.306;12.384;2023-05-08T10:09:25;100991.00;;;16.90
24639;BMP180;1641;51.306;12.384;2023-05-08T10:12:03;101039.00;;;17.10
24639;BMP180;1641;51.306;12.384;2023-05-08T10:14:32;100968.00;;;16.60
24639;BMP180;1641;51.306;12.384;2023-05-08T10:16:58;101028.00;;;16.60
24639;BMP180;1641;51.306;12.384;2023-05-08T10:19:25;101021.00;;;16.50
24639;BMP180;1641;51.306;12.384;2023-05-08T10:21:54;100958.00;;;16.70
24639;BMP180;1641;51.306;12.384;2023-05-08T10:24:32;101034.00;;;16.60
24639;BMP180;1641;51.306;12.384;2023-05-08T10:27:15;101029.00;;;15.90
24639;BMP180;1641;51.306;12.384;2023-05-08T10:29:55;100969.00;;;16.60
24639;BMP180;1641;51.306;12.384;2023-05-08T10:32:24;101015.00;;;16.70
24639;BMP180;1641;51.306;12.384;2023-05-08T10:34:57;101015.00;;;16.40
24639;BMP180;1641;51.306;12.384;2023-05-08T10:37:23;100988.00;;;16.40
24639;BMP180;1641;51.306;12.384;2023-05-08T10:39:52;101007.00;;;16.50
24639;BMP180;1641;51.306;12.384;2023-05-08T10:42:21;100968.00;;;17.00
24639;BMP180;1641;51.306;12.384;2023-05-08T10:44:46;101011.00;;;16.80
24639;BMP180;1641;51.306;12.384;2023-05-08T10:47:18;101004.00;;;17.20
24639;BMP180;1641;51.306;12.384;2023-05-08T10:53:01;101000.00;;;16.30
24639;BMP180;1641;51.306;12.384;2023-05-08T10:55:31;101017.00;;;16.70
24639;BMP180;1641;51.306;12.384;2023-05-08T10:58:10;101005.00;;;16.80
24639;BMP180;1641;51.306;12.384;2023-05-08T11:03:17;101001.00;;;17.30
24639;BMP180;1641;51.306;12.384;2023-05-08T11:05:48;101000.00;;;17.60
24639;BMP180;1641;51.306;12.384;2023-05-08T11:08:15;100988.00;;;17.50
24639;BMP180;1641;51.306;12.384;2023-05-08T11:10:43;100958.00;;;17.30
24639;BMP180;1641;51.306;12.384;2023-05-08T11:13:10;100972.00;;;17.40
24639;BMP180;1641;51.306;12.384;2023-05-08T11:15:39;100985.00;;;17.60
24639;BMP180;1641;51.306;12.384;2023-05-08T11:18:08;100980.00;;;17.30
24639;BMP180;1641;51.306;12.384;2023-05-08T11:20:53;100970.00;;;17.10
24639;BMP180;1641;51.306;12.384;2023-05-08T11:23:31;100990.00;;;17.60
24639;BMP180;1641;51.306;12.384;2023-05-08T11:28:37;100990.00;;;17.40
24639;BMP180;1641;51.306;12.384;2023-05-08T11:31:04;100984.00;;;17.50
24639;BMP180;1641;51.306;12.384;2023-05-08T11:33:31;100960.00;;;17.10
24639;BMP180;1641;51.306;12.384;2023-05-08T11:36:11;100978.00;;;17.30
24639;BMP180;1641;51.306;12.384;2023-05-08T11:38:37;100973.00;;;17.70
24639;BMP180;1641;51.306;12.384;2023-05-08T11:41:05;100974.00;;;17.90
24639;BMP180;1641;51.306;12.384;2023-05-08T11:48:37;100966.00;;;18.30
24639;BMP180;1641;51.306;12.384;2023-05-08T11:51:02;100929.00;;;18.40
24639;BMP180;1641;51.306;12.384;2023-05-08T11:53:29;100938.00;;;18.20
24639;BMP180;1641;51.306;12.384;2023-05-08T11:55:56;100949.00;;;18.00
24639;BMP180;1641;51.306;12.384;2023-05-08T11:58:21;100918.00;;;18.30
24639;BMP180;1641;51.306;12.384;2023-05-08T12:00:48;100953.00;;;18.20
24639;BMP180;1641;51.306;12.384;2023-05-08T12:03:15;100918.00;;;18.70
24639;BMP180;1641;51.306;12.384;2023-05-08T12:05:41;100945.00;;;18.90
24639;BMP180;1641;51.306;12.384;2023-05-08T12:08:10;100960.00;;;18.80
24639;BMP180;1641;51.306;12.384;2023-05-08T12:10:55;100948.00;;;18.50
24639;BMP180;1641;51.306;12.384;2023-05-08T12:13:23;100943.00;;;18.80
24639;BMP180;1641;51.306;12.384;2023-05-08T12:15:50;100932.00;;;18.80
24639;BMP180;1641;51.306;12.384;2023-05-08T12:18:17;100899.00;;;19.50
24639;BMP180;1641;51.306;12.384;2023-05-08T12:20:43;100936.00;;;18.70
24639;BMP180;1641;51.306;12.384;2023-05-08T12:23:08;100918.00;;;18.90
24639;BMP180;1641;51.306;12.384;2023-05-08T12:25:38;100916.00;;;18.80
24639;BMP180;1641;51.306;12.384;2023-05-08T12:28:08;100939.00;;;19.10
24639;BMP180;1641;51.306;12.384;2023-05-08T12:30:34;100948.00;;;19.00
24639;BMP180;1641;51.306;12.384;2023-05-08T12:33:00;100937.00;;;19.30
24639;BMP180;1641;51.306;12.384;2023-05-08T12:35:26;100914.00;;;19.90
24639;BMP180;1641;51.306;12.384;2023-05-08T12:37:51;100919.00;;;19.60
24639;BMP180;1641;51.306;12.384;2023-05-08T12:40:30;100945.00;;;19.00
24639;BMP180;1641;51.306;12.384;2023-05-08T12:42:58;100939.00;;;18.90
24639;BMP180;1641;51.306;12.384;2023-05-08T12:45:39;100931.00;;;18.90
24639;BMP180;1641;51.306;12.384;2023-05-08T12:48:11;100932.00;;;18.60
24639;BMP180;1641;51.306;12.384;2023-05-08T12:50:39;100927.00;;;18.80
24639;BMP180;1641;51.306;12.384;2023-05-08T12:53:06;100933.00;;;19.60
24639;BMP180;1641;51.306;12.384;2023-05-08T12:55:34;100934.00;;;19.80
24639;BMP180;1641;51.306;12.384;2023-05-08T12:58:08;100936.00;;;19.60
24639;BMP180;1641;51.306;12.384;2023-05-08T13:00:45;100930.00;;;19.50
24639;BMP180;1641;51.306;12.384;2023-05-08T13:03:23;100916.00;;;19.60
24639;BMP180;1641;51.306;12.384;2023-05-08T13:05:54;100927.00;;;19.60
24639;BMP180;1641;51.306;12.384;2023-05-08T13:08:19;100923.00;;;19.40
24639;BMP180;1641;51.306;12.384;2023-05-08T13:10:45;100921.00;;;19.50
24639;BMP180;1641;51.306;12.384;2023-05-08T13:13:12;100935.00;;;19.20
24639;BMP180;1641;51.306;12.384;2023-05-08T13:15:37;100919.00;;;19.20
24639;BMP180;1641;51.306;12.384;2023-05-08T13:18:02;100879.00;;;19.30
24639;BMP180;1641;51.306;12.384;2023-05-08T13:20:28;100879.00;;;19.50
24639;BMP180;1641;51.306;12.384;2023-05-08T13:22:53;100895.00;;;19.80
24639;BMP180;1641;51.306;12.384;2023-05-08T13:25:18;100891.00;;;19.60
24639;BMP180;1641;51.306;12.384;2023-05-08T13:27:43;100836.00;;;19.40
24639;BMP180;1641;51.306;12.384;2023-05-08T13:30:09;100857.00;;;20.10
24639;BMP180;1641;51.306;12.384;2023-05-08T13:32:35;100852.00;;;20.00
24639;BMP180;1641;51.306;12.384;2023-05-08T13:35:00;100881.00;;;20.10
24639;BMP180;1641;51.306;12.384;2023-05-08T13:37:25;100851.00;;;19.50
24639;BMP180;1641;51.306;12.384;2023-05-08T13:39:50;100870.00;;;19.90
24639;BMP180;1641;51.306;12.384;2023-05-08T13:42:16;100860.00;;;19.90
24639;BMP180;1641;51.306;12.384;2023-05-08T13:44:41;100871.00;;;20.30
24639;BMP180;1641;51.306;12.384;2023-05-08T13:47:08;100875.00;;;20.30
24639;BMP180;1641;51.306;12.384;2023-05-08T13:49:34;100874.00;;;20.30
24639;BMP180;1641;51.306;12.384;2023-05-08T13:51:59;100863.00;;;20.40
24639;BMP180;1641;51.306;12.384;2023-05-08T13:54:25;100836.00;;;20.00
24639;BMP180;1641;51.306;12.384;2023-05-08T13:56:50;100862.00;;;20.60
24639;BMP180;1641;51.306;12.384;2023-05-08T13:59:15;100847.00;;;19.80
24639;BMP180;1641;51.306;12.384;2023-05-08T14:01:41;100847.00;;;20.10
24639;BMP180;1641;51.306;12.384;2023-05-08T14:04:06;100820.00;;;20.00
24639;BMP180;1641;51.306;12.384;2023-05-08T14:06:31;100827.00;;;20.20
24639;BMP180;1641;51.306;12.384;2023-05-08T14:08:57;100831.00;;;20.20
24639;BMP180;1641;51.306;12.384;2023-05-08T14:11:22;100839.00;;;20.20
24639;BMP180;1641;51.306;12.384;2023-05-08T14:13:47;100844.00;;;19.90
24639;BMP180;1641;51.306;12.384;2023-05-08T14:16:13;100853.00;;;19.90
24639;BMP180;1641;51.306;12.384;2023-05-08T14:18:40;100844.00;;;20.10
24639;BMP180;1641;51.306;12.384;2023-05-08T14:21:05;100832.00;;;20.20
24639;BMP180;1641;51.306;12.384;2023-05-08T14:23:31;100771.00;;;20.50
24639;BMP180;1641;51.306;12.384;2023-05-08T14:25:56;100790.00;;;20.20
24639;BMP180;1641;51.306;12.384;2023-05-08T14:28:21;100802.00;;;20.00
24639;BMP180;1641;51.306;12.384;2023-05-08T14:30:46;100789.00;;;20.40
24639;BMP180;1641;51.306;12.384;2023-05-08T14:33:12;100838.00;;;20.10
24639;BMP180;1641;51.306;12.384;2023-05-08T14:35:37;100848.00;;;20.00
24639;BMP180;1641;51.306;12.384;2023-05-08T14:38:03;100849.00;;;20.10
24639;BMP180;1641;51.306;12.384;2023-05-08T14:40:28;100843.00;;;19.80
24639;BMP180;1641;51.306;12.384;2023-05-08T14:42:54;100796.00;;;19.80
24639;BMP180;1641;51.306;12.384;2023-05-08T14:45:19;100795.00;;;19.90
24639;BMP180;1641;51.306;12.384;2023-05-08T14:47:45;100834.00;;;19.80